• Join FlightAware (Why Join?)
  • Login
  • US Flag 
08:19AM EST


 

Airport Tracker/Info


-or-


 

Live Flight TrackerFlight Track Log ✈ UCA3597 ✈ 12-Dec-2013 ✈ KIAD - KBGM

Flight Track Log - Related Links

Times and Time Zones

All times are in EST time to prevent confusion due to time zone crossing. See the UCA3597 flight status page for this flight to view local times or setup timezone preferences in your user account.

Time Position Orientation Groundspeed Altitude Reporting Facility
EST Latitude Longitude Course Direction KTS MPH feet Rate Location/Type
06:08PM 40.5602 -76.7469 19° North  Level Estimated
06:09PM 40.6165 -76.7214 19° North  Level Estimated
06:10PM 40.6729 -76.6958 19° North  Level Estimated
06:11PM 40.7292 -76.6701 19° North  Level Estimated
06:12PM 40.7855 -76.6445 19° North  Level Estimated
06:13PM 40.8418 -76.6187 19° North  Level Estimated
06:14PM 40.8981 -76.5930 19° North  Level Estimated
06:15PM 40.9544 -76.5671 19° North  Level Estimated
06:16PM 41.0107 -76.5413 19° North  Level Estimated
06:17PM 41.0670 -76.5154 19° North  Level Estimated
06:18PM 41.1232 -76.4894 19° North  Level Estimated
06:19PM 41.1795 -76.4634 19° North  Level Estimated
06:20PM 41.2358 -76.4374 19° North  Level Estimated
06:21PM 41.2920 -76.4113 19° North  Level Estimated
06:22PM 41.3483 -76.3852 19° North  Level Estimated
06:23PM 41.4045 -76.3590 19° North  Level Estimated
06:24PM 41.4608 -76.3328 19° North  Level Estimated
06:25PM 41.5170 -76.3065 19° North  Level Estimated
06:26PM 41.5732 -76.2802 19° North  Level Estimated
06:27PM 41.6294 -76.2539 19° North  Level Estimated
06:28PM 41.6857 -76.2275 19° North  Level Estimated
06:29PM 41.7419 -76.2010 19° North  Level Estimated
06:30PM 41.7981 -76.1746 19° North  Level Estimated
06:31PM 41.8543 -76.1480 19° North  Level Estimated
06:32PM 41.9105 -76.1214 19° North  Level Estimated
06:33PM 41.9666 -76.0948 19° North  Level Estimated
06:34PM 42.0228 -76.0681 19° North  Level Estimated
06:35PM 42.0790 -76.0414 19° North  Level Estimated
06:36PM 42.1352 -76.0146 19° North  Level Estimated
06:37PM 42.1913 -75.9878 19° North  Level Estimated
06:38PM 42.2084 -75.9796 20° North  Level Estimated
06:39PM 42.2084 -75.9796 35° Northeast  Level Estimated
06:40PM 42.2084 -75.9796 35° Northeast  Level Estimated
06:41PM 42.2084 -75.9796 35° Northeast  Level Estimated
06:42PM 42.2084 -75.9796 35° Northeast  Level Estimated
06:43PM 42.2084 -75.9796 35° Northeast  Level Estimated
06:44PM 42.2084 -75.9796 35° Northeast  Level Estimated
06:45PM 42.2084 -75.9796 35° Northeast  Level Estimated
06:46PM 42.2084 -75.9796 35° Northeast  Level Estimated
06:47PM 42.2084 -75.9796 35° Northeast  Level Estimated